Terminal Aerodrome Forecast
Issued by NWS

Home | Current Version | Previous Version | Graphics & Text | Print | Product List | Glossary Off
Versions: 1 2 3 4 5 6 7 8 9 10 11 12 13 14 15 16 17 18

000
FTUS41 KCLE 181740
TAFFDY
TAF
KFDY 181740Z 1818/1918 14012G18KT 2SM -SHRA BR VCTS BKN009CB OVC015
      WS020/20040KT
      TEMPO 1818/1822 VRB25G40KT 1SM -TSRA BKN003CB
     FM182200 27020G35KT 3SM -SHRA BR OVC003
     FM190400 32020G35KT 5SM BR OVC010=

USA.gov is the U.S. government's official web portal to all federal, state and local government web resources and services.